Latest Weather Observations for Walpeup RS

IDV60801

Issued at 10:35 pm EST Thursday 24 April 2014 (issued every 30 minutes, with the page automatically refreshed every 10 minutes)

About weather observations | Map of weather stations | Latest weather observations for VIC | Other Formats
Station Details ID: 076064 Name: WALPEUP RESEARCH Lat: -35.12 Lon: 142.00 Height: 105.0 m
Data from the previous 72 hours. | See also: Recent months at Walpeup RS
Date/Time
EST
Temp
°C
App
Temp
°C
Dew
Point
Rel
Hum
%
Delta-T
°C
Wind Press
QNH
hPa
Press
MSL
hPa
Rain
since 9 am
mm
Dir
 
Spd
km/h
Gust
km/h
Spd
kts
Gust
kts
24/10:30pm 12.2 9.1 1.5 48 4.6 SE 7 11 4 6 - - 0.0
24/10:00pm 12.8 9.0 1.8 47 4.8 SE 11 15 6 8 - - 0.0
24/09:30pm 13.0 8.9 2.0 47 4.8 SSE 13 17 7 9 - - 0.0
24/09:00pm 13.4 9.6 2.0 46 5.0 SSE 11 15 6 8 - - 0.0
24/08:30pm 13.9 10.1 1.9 44 5.3 SSE 11 15 6 8 - - 0.0
24/08:00pm 14.2 10.4 1.5 42 5.5 SSE 11 15 6 8 - - 0.0
24/07:30pm 14.0 10.2 1.6 43 5.4 SSE 11 13 6 7 - - 0.0
24/07:00pm 14.5 11.0 1.4 41 5.7 SSE 9 11 5 6 - - 0.0
24/06:30pm 15.1 11.3 1.6 40 5.9 SSE 11 13 6 7 - - 0.0
24/06:00pm 15.7 12.5 2.8 42 5.9 S 9 11 5 6 - - 0.0
24/05:30pm 17.5 14.0 3.4 39 6.6 SSW 11 17 6 9 - - 0.0
24/05:00pm 18.8 14.7 4.2 38 7.0 SSW 15 20 8 11 - - 0.0
24/04:30pm 19.6 16.4 5.3 39 7.0 SSW 11 19 6 10 - - 0.0
24/04:00pm 19.9 17.0 6.3 41 6.8 SW 11 19 6 10 - - 0.0
24/03:30pm 20.0 16.4 6.7 42 6.7 S 15 22 8 12 - - 0.0
24/03:00pm 20.1 16.9 6.8 42 6.8 SSW 13 22 7 12 - - 0.0
24/02:30pm 20.4 17.0 7.7 44 6.6 SSW 15 26 8 14 - - 0.0
24/02:00pm 19.8 17.1 8.8 49 5.8 SSW 13 22 7 12 - - 0.0
24/01:30pm 19.3 16.2 8.9 51 5.5 S 15 24 8 13 - - 0.0
24/01:00pm 19.3 16.1 9.8 54 5.1 SSW 17 26 9 14 - - 0.0
24/12:30pm 18.6 15.6 10.7 60 4.3 S 17 28 9 15 - - 0.0
24/12:00pm 17.8 14.6 11.1 65 3.6 S 19 24 10 13 - - 0.0
24/11:30am 17.4 14.6 11.2 67 3.4 SSW 17 28 9 15 - - 0.0
24/11:00am 16.4 12.9 10.9 70 3.0 SSW 20 28 11 15 - - 0.0
24/10:30am 16.7 12.7 10.5 67 3.3 SSW 22 30 12 16 - - 0.0
24/10:00am 16.9 14.0 11.0 68 3.2 WSW 17 24 9 13 - - 0.0
24/09:30am 15.6 13.3 10.4 71 2.8 W 13 20 7 11 - - 0.0
24/09:00am 13.6 11.7 8.9 73 2.4 WNW 9 15 5 8 - - 0.0
24/08:30am 11.9 9.8 6.6 70 2.5 WNW 7 11 4 6 - - 0.0
24/08:00am 10.1 7.8 5.7 74 2.0 WNW 7 9 4 5 - - 0.0
24/07:30am 7.8 5.2 4.0 77 1.7 WNW 7 7 4 4 - - 0.0
24/07:00am 7.7 5.0 3.7 76 1.7 WNW 7 9 4 5 - - 0.0
24/06:30am 7.8 5.1 3.5 74 1.8 WNW 7 9 4 5 - - 0.0
24/06:00am 7.9 5.4 3.6 74 1.9 WNW 6 7 3 4 - - 0.0
24/05:30am 7.3 4.6 2.8 73 1.9 WNW 6 7 3 4 - - 0.0
24/05:00am 7.8 5.1 2.9 71 2.1 WNW 6 7 3 4 - - 0.0
24/04:30am 8.4 5.2 3.1 69 2.3 W 9 13 5 7 - - 0.0
24/04:00am 8.6 5.4 3.2 69 2.3 NW 9 11 5 6 - - 0.0
24/03:30am 8.2 5.3 2.4 67 2.4 WNW 7 11 4 6 - - 0.0
24/03:00am 8.8 5.8 2.2 63 2.8 WNW 7 9 4 5 - - 0.0
24/02:30am 9.7 6.8 2.6 61 3.0 NW 7 9 4 5 - - 0.0
24/02:00am 10.0 7.1 2.8 61 3.1 NNW 7 7 4 4 - - 0.0
24/01:30am 9.8 6.9 2.6 61 3.1 NW 7 7 4 4 - - 0.0
24/01:00am 11.3 8.4 1.5 51 4.2 NW 6 7 3 4 - - 0.0
24/12:30am 12.9 10.7 1.3 45 5.0 WNW 2 4 1 2 - - 0.0
24/12:00am 13.5 10.9 1.2 43 5.3 WNW 4 4 2 2 - - 0.0
 
Date/Time
EST
Temp
°C
App
Temp
°C
Dew
Point
Rel
Hum
%
Delta-T
°C
Wind Press
QNH
hPa
Press
MSL
hPa
Rain
since 9 am
mm
Dir
 
Spd
km/h
Gust
km/h
Spd
kts
Gust
kts
23/11:30pm 14.1 11.5 1.1 41 5.6 NNW 4 4 2 2 - - 0.0
23/11:00pm 14.1 11.4 0.4 39 5.8 N 4 6 2 3 - - 0.0
23/10:30pm 14.1 11.7 -0.4 37 6.0 NNW 2 4 1 2 - - 0.0
23/10:00pm 14.1 11.5 0.7 40 5.7 NW 4 4 2 2 - - 0.0
23/09:30pm 13.0 11.1 0.7 43 5.2 CALM 0 0 0 0 - - 0.0
23/09:00pm 14.4 12.5 0.3 38 6.0 CALM 0 0 0 0 - - 0.0
23/08:30pm 14.9 12.6 0.4 37 6.2 WSW 2 4 1 2 - - 0.0
23/08:00pm 15.3 13.3 -0.1 35 6.5 CALM 0 0 0 0 - - 0.0
23/07:30pm 15.4 13.4 0.0 35 6.6 CALM 0 0 0 0 - - 0.0
23/07:00pm 15.2 13.4 1.0 38 6.2 CALM 0 0 0 0 - - 0.0
23/06:30pm 16.0 14.2 1.3 37 6.5 CALM 0 0 0 0 - - 0.0
23/06:00pm 17.3 15.6 2.1 36 6.9 CALM 0 0 0 0 - - 0.0
23/05:30pm 18.8 16.5 3.0 35 7.4 W 4 4 2 2 - - 0.0
23/05:00pm 19.7 17.4 3.0 33 7.9 WSW 4 6 2 3 - - 0.0
23/04:30pm 20.6 17.9 2.4 30 8.5 W 6 9 3 5 - - 0.0
23/04:00pm 20.0 17.1 2.4 31 8.2 W 7 13 4 7 - - 0.0
23/03:30pm 20.3 18.0 4.8 36 7.6 WSW 6 9 3 5 - - 0.0
23/03:00pm 20.3 17.8 3.5 33 8.0 WNW 6 9 3 5 - - 0.0
23/02:30pm 20.3 18.0 4.8 36 7.6 W 6 13 3 7 - - 0.0
23/02:00pm 20.0 17.9 5.6 39 7.1 W 6 11 3 6 - - 0.0
23/01:30pm 19.5 17.7 5.6 40 6.9 WSW 4 9 2 5 - - 0.0
23/01:00pm 19.0 16.4 6.2 43 6.4 WSW 9 15 5 8 - - 0.0
23/12:30pm 18.6 16.4 6.4 45 6.1 W 7 13 4 7 - - 0.0
23/12:00pm 18.8 16.7 6.6 45 6.1 SSW 7 15 4 8 - - 0.0
23/11:30am 17.8 16.3 7.0 49 5.4 S 4 9 2 5 - - 0.0
23/11:00am 17.6 16.1 8.5 55 4.7 ESE 6 9 3 5 - - 0.0
23/10:30am 16.3 14.7 8.0 58 4.2 SE 6 9 3 5 - - 0.0
23/10:00am 15.3 13.6 8.5 64 3.5 S 7 9 4 5 - - 0.0
23/09:30am 14.8 13.7 8.5 66 3.2 SE 4 7 2 4 - - 0.0
23/09:00am 13.0 11.5 8.3 73 2.3 SSE 6 9 3 5 - - 0.2
23/08:30am 11.4 9.8 8.6 83 1.4 SSE 7 9 4 5 - - 0.2
23/08:00am 8.6 6.8 7.2 91 0.7 S 6 7 3 4 - - 0.2
23/07:30am 7.2 5.5 5.7 90 0.7 S 4 6 2 3 - - 0.2
23/07:00am 7.3 5.9 5.6 89 0.8 S 2 6 1 3 - - 0.2
23/06:30am 7.3 5.5 5.6 89 0.8 S 4 6 2 3 - - 0.2
23/06:00am 7.5 4.8 5.8 89 0.8 S 9 11 5 6 - - 0.2
23/05:30am 7.2 4.8 5.3 88 0.8 S 7 7 4 4 - - 0.2
23/05:00am 7.5 5.4 5.6 88 0.9 SSW 6 7 3 4 - - 0.2
23/04:30am 7.7 5.4 5.7 87 0.9 SSW 7 9 4 5 - - 0.2
23/04:00am 7.9 5.6 5.7 86 1.0 SSW 7 9 4 5 - - 0.2
23/03:30am 8.5 6.4 5.8 83 1.2 SSW 6 7 3 4 - - 0.2
23/03:00am 9.3 7.3 6.2 81 1.4 SSW 6 9 3 5 - - 0.2
23/02:30am 9.6 7.5 6.7 82 1.4 SSW 7 9 4 5 - - 0.2
23/02:00am 9.7 7.6 6.6 81 1.5 S 7 9 4 5 - - 0.2
23/01:30am 10.1 8.2 6.6 79 1.6 S 6 9 3 5 - - 0.2
23/01:00am 10.5 8.0 6.6 77 1.8 S 9 15 5 8 - - 0.2
23/12:30am 11.2 8.0 6.7 74 2.1 SSW 13 17 7 9 - - 0.2
23/12:00am 11.9 9.1 6.8 71 2.4 SSW 11 17 6 9 - - 0.2
 
Date/Time
EST
Temp
°C
App
Temp
°C
Dew
Point
Rel
Hum
%
Delta-T
°C
Wind Press
QNH
hPa
Press
MSL
hPa
Rain
since 9 am
mm
Dir
 
Spd
km/h
Gust
km/h
Spd
kts
Gust
kts
22/11:30pm 12.4 10.0 7.1 70 2.6 SW 9 13 5 7 - - 0.2
22/11:00pm 13.1 10.8 7.3 68 2.8 SW 9 13 5 7 - - 0.2
22/10:30pm 13.1 10.8 7.5 69 2.7 SW 9 11 5 6 - - 0.2
22/10:00pm 13.5 11.6 7.7 68 2.9 SW 7 9 4 5 - - 0.2
22/09:30pm 14.3 12.6 8.3 67 3.0 SSW 7 11 4 6 - - 0.2
22/09:00pm 15.1 13.1 8.6 65 3.3 SSW 9 13 5 7 - - 0.2
22/08:30pm 15.0 13.4 8.9 67 3.1 SSW 7 11 4 6 - - 0.2
22/08:00pm 15.4 14.0 8.9 65 3.3 SW 6 7 3 4 - - 0.2
22/07:30pm 15.6 14.3 9.1 65 3.4 WSW 6 7 3 4 - - 0.2
22/07:00pm 16.0 14.6 9.0 63 3.6 WSW 6 7 3 4 - - 0.2
22/06:30pm 17.1 15.2 9.0 59 4.2 WSW 9 11 5 6 - - 0.2
22/06:00pm 18.3 15.7 9.4 56 4.7 WSW 13 17 7 9 - - 0.2
22/05:30pm 19.2 16.5 10.5 57 4.7 WSW 15 20 8 11 - - 0.2
22/05:00pm 19.9 17.1 11.4 58 4.7 WSW 17 22 9 12 - - 0.2
22/04:30pm 20.3 17.9 12.5 61 4.4 WSW 17 24 9 13 - - 0.2
22/04:00pm 20.9 17.9 12.6 59 4.7 WSW 20 28 11 15 - - 0.2
22/03:30pm 21.8 18.8 12.6 56 5.2 WSW 20 30 11 16 - - 0.2
22/03:00pm 22.2 20.3 13.0 56 5.3 WSW 15 24 8 13 - - 0.2
22/02:30pm 21.6 18.4 13.0 58 4.9 WSW 22 30 12 16 - - 0.2
22/02:00pm 22.1 19.9 13.2 57 5.1 WSW 17 24 9 13 - - 0.2
22/01:30pm 21.8 21.4 12.4 55 5.3 W 6 9 3 5 - - 0.2
22/01:00pm 20.1 18.7 12.1 60 4.5 WSW 11 19 6 10 - - 0.2
22/12:30pm 20.9 18.5 11.3 54 5.3 WSW 15 20 8 11 - - 0.2
22/12:00pm 22.9 20.6 11.6 49 6.4 W 15 24 8 13 - - 0.2
22/11:30am 21.6 18.6 10.7 50 6.0 WNW 17 24 9 13 - - 0.2
22/11:00am 21.6 18.0 9.8 47 6.4 WNW 19 22 10 12 - - 0.2
22/10:30am 19.9 17.1 10.0 53 5.3 NW 15 20 8 11 - - 0.0
22/10:00am 18.3 15.8 10.9 62 4.0 N 15 19 8 10 - - 0.0
22/09:30am 17.9 15.9 11.5 66 3.5 N 13 20 7 11 - - 0.0
22/09:00am 15.6 13.3 10.4 71 2.8 N 13 19 7 10 - - 0.4
22/08:30am 15.9 12.2 10.0 68 3.1 NNE 20 22 11 12 - - 0.0
22/08:00am 16.3 15.0 9.3 63 3.6 N 6 7 3 4 - - 0.0
22/07:30am 16.3 14.8 9.0 62 3.8 N 7 13 4 7 - - 0.0
22/07:00am 15.0 14.4 9.1 68 3.0 NNW 2 6 1 3 - - 0.0
22/06:30am 14.4 13.7 8.4 67 3.0 SSW 2 7 1 4 - - 0.0
22/06:00am 16.8 15.1 8.2 57 4.4 NNE 7 11 4 6 - - 0.0
22/05:30am 16.7 14.2 8.4 58 4.3 NNE 11 15 6 8 - - 0.0
22/05:00am 17.9 15.0 8.2 53 5.0 NW 13 15 7 8 - - 0.0
22/04:30am 16.7 12.5 8.1 57 4.4 WSW 20 32 11 17 - - 0.0
22/04:00am 16.4 12.7 7.9 57 4.3 N 17 22 9 12 - - 0.0
22/03:30am 16.5 12.4 8.0 57 4.3 N 19 24 10 13 - - 0.0
22/03:00am 16.9 12.2 7.8 55 4.6 N 22 28 12 15 - - 0.0
22/02:30am 17.2 12.9 7.8 54 4.8 N 20 28 11 15 - - 0.0
22/02:00am 17.5 12.9 8.1 54 4.8 N 22 30 12 16 - - 0.0
22/01:30am 18.0 13.0 8.0 52 5.1 N 24 35 13 19 - - 0.0
22/01:00am 17.9 12.5 8.2 53 5.0 N 26 33 14 18 - - 0.0
22/12:30am 18.3 13.4 8.3 52 5.2 N 24 30 13 16 - - 0.0
22/12:00am 18.5 13.6 8.5 52 5.2 N 24 33 13 18 - - 0.0
 
Date/Time
EST
Temp
°C
App
Temp
°C
Dew
Point
Rel
Hum
%
Delta-T
°C
Wind Press
QNH
hPa
Press
MSL
hPa
Rain
since 9 am
mm
Dir
 
Spd
km/h
Gust
km/h
Spd
kts
Gust
kts
21/11:30pm 18.6 13.7 8.6 52 5.2 N 24 32 13 17 - - 0.0
21/11:00pm 18.8 14.3 8.5 51 5.4 N 22 33 12 18 - - 0.0

Other Formats:

Comma delimited format used in spreadsheet applications
http://www.bom.gov.au/fwo/IDV60801/IDV60801.95831.axf

JavaScript Object Notation format (JSON) in row-major order
http://www.bom.gov.au/fwo/IDV60801/IDV60801.95831.json